Time;durP1;ratioP1;P1;durP2;ratioP2;P2;SDS_P1;SDS_P2;PMS_P1;PMS_P2;Temp;Humidity;BMP_temperature;BMP_pressure;BME280_temperature;BME280_humidity;BME280_pressure;Samples;Min_cycle;Max_cycle;Signal;HPM_P1;HPM_P2
2022/08/01 00:01:40;;;;;;;3.85;1.40;;;;;;;24.20;53.96;98342.03;4995747;28;20512;-63
2022/08/01 00:04:05;;;;;;;3.90;1.40;;;;;;;24.35;54.17;98360.88;4997552;28;20026;-63
2022/08/01 00:06:31;;;;;;;3.50;1.40;;;;;;;24.39;55.07;98371.84;4992534;28;20032;-62
2022/08/01 00:08:57;;;;;;;4.63;1.70;;;;;;;24.46;54.61;98374.31;4984146;28;20624;-61
2022/08/01 00:11:22;;;;;;;3.92;1.65;;;;;;;24.31;54.37;98357.13;4998795;28;20215;-61
2022/08/01 00:13:47;;;;;;;3.40;1.40;;;;;;;24.37;53.67;98361.44;5000605;28;20104;-62
2022/08/01 00:16:13;;;;;;;5.85;1.60;;;;;;;24.29;54.65;98361.03;4997102;28;20036;-61
2022/08/01 00:18:38;;;;;;;4.55;1.50;;;;;;;24.30;54.85;98362.66;4997780;28;20044;-61
2022/08/01 00:21:04;;;;;;;3.90;1.40;;;;;;;24.32;54.65;98360.56;4984829;28;20789;-64
2022/08/01 00:23:30;;;;;;;3.97;1.50;;;;;;;24.30;54.63;98371.44;4978637;28;20037;-62
2022/08/01 00:25:55;;;;;;;3.55;1.48;;;;;;;24.31;54.69;98367.75;4994835;28;20527;-61
2022/08/01 00:28:20;;;;;;;4.03;1.60;;;;;;;24.27;54.66;98369.25;4988491;28;20030;-61
2022/08/01 00:30:46;;;;;;;3.38;1.40;;;;;;;24.26;55.21;98372.13;4994957;28;20382;-64
2022/08/01 00:33:11;;;;;;;4.60;1.50;;;;;;;23.96;55.36;98350.09;4995400;28;20038;-61
2022/08/01 00:35:37;;;;;;;3.80;1.50;;;;;;;24.16;55.37;98367.47;5003744;28;20029;-60
2022/08/01 00:38:02;;;;;;;4.70;1.58;;;;;;;24.13;55.65;98368.75;4998109;28;20037;-62
2022/08/01 00:40:28;;;;;;;6.28;1.65;;;;;;;24.07;55.60;98368.88;4982483;28;20066;-62
2022/08/01 00:42:53;;;;;;;3.92;1.52;;;;;;;23.97;54.73;98342.97;4998403;28;20037;-61
2022/08/01 00:45:18;;;;;;;3.92;1.75;;;;;;;24.02;54.30;98366.94;4997828;28;20032;-61
2022/08/01 00:47:44;;;;;;;4.10;1.42;;;;;;;24.07;54.36;98376.84;4997420;28;20465;-61
2022/08/01 00:50:10;;;;;;;3.80;1.60;;;;;;;23.80;55.82;98348.22;4995293;28;20022;-60
2022/08/01 00:52:36;;;;;;;4.43;1.58;;;;;;;24.07;55.56;98382.16;4975063;28;20496;-64
2022/08/01 00:55:02;;;;;;;4.95;1.83;;;;;;;24.01;55.49;98372.50;4980361;28;20029;-63
2022/08/01 00:57:28;;;;;;;3.67;1.42;;;;;;;23.95;56.27;98371.63;4996410;28;20088;-65
2022/08/01 00:59:53;;;;;;;3.35;1.45;;;;;;;23.94;57.32;98370.78;4997995;28;20032;-62
2022/08/01 01:02:18;;;;;;;4.07;1.73;;;;;;;23.88;57.25;98360.31;4998162;28;20466;-64
2022/08/01 01:04:44;;;;;;;3.72;1.60;;;;;;;23.91;56.62;98365.13;5000313;28;20022;-62
2022/08/01 01:07:44;;;;;;;3.47;1.40;;;;;;;23.75;56.92;98361.38;4980325;28;20051;-62
2022/08/01 01:10:32;;;;;;;5.25;1.77;;;;;;;23.84;58.03;98362.66;4988947;28;20034;-62
2022/08/01 01:13:16;;;;;;;3.92;1.40;;;;;;;23.57;57.79;98347.22;4976095;28;20059;-62
2022/08/01 01:15:52;;;;;;;4.70;1.80;;;;;;;23.68;57.28;98363.38;4985848;28;20132;-62
2022/08/01 01:18:39;;;;;;;3.97;1.60;;;;;;;23.65;57.36;98353.22;4992958;28;20049;-63
2022/08/01 01:21:14;;;;;;;4.45;1.60;;;;;;;23.67;58.04;98343.16;4995955;28;20026;-61
2022/08/01 01:23:57;;;;;;;3.25;1.50;;;;;;;23.69;57.89;98357.78;4997559;28;20033;-61
2022/08/01 01:26:36;;;;;;;3.35;1.40;;;;;;;23.61;58.44;98353.69;4999629;28;20084;-62
2022/08/01 01:29:05;;;;;;;3.33;1.40;;;;;;;23.65;57.58;98356.66;4979904;28;20715;-61
2022/08/01 01:31:36;;;;;;;4.50;1.50;;;;;;;23.54;57.66;98360.97;4998953;28;20026;-60
2022/08/01 01:34:02;;;;;;;4.68;1.50;;;;;;;23.52;57.31;98352.44;4979564;28;20034;-62
2022/08/01 01:36:28;;;;;;;3.75;1.70;;;;;;;23.55;58.12;98354.63;4980006;28;20113;-61
2022/08/01 01:38:54;;;;;;;5.15;1.67;;;;;;;23.43;58.32;98353.84;4987692;28;20033;-62
2022/08/01 01:41:20;;;;;;;3.60;1.50;;;;;;;23.46;58.58;98355.25;4985964;28;20038;-61
2022/08/01 01:43:46;;;;;;;3.50;1.35;;;;;;;23.49;58.91;98349.44;4985883;28;20029;-61
2022/08/01 01:46:16;;;;;;;3.95;1.70;;;;;;;23.40;58.62;98338.38;4985093;28;20513;-63
2022/08/01 01:48:43;;;;;;;3.80;1.60;;;;;;;23.40;58.76;98349.00;4988470;28;20030;-62
2022/08/01 01:51:09;;;;;;;3.78;1.58;;;;;;;22.93;58.67;98280.13;5000608;28;20054;-65
2022/08/01 01:53:35;;;;;;;3.00;1.40;;;;;;;23.42;58.43;98339.78;4997860;28;20110;-61
2022/08/01 01:56:01;;;;;;;3.35;1.40;;;;;;;23.42;58.76;98344.28;4984617;28;20610;-63
2022/08/01 01:58:27;;;;;;;4.78;1.52;;;;;;;23.39;58.56;98358.00;4982673;28;20026;-62
2022/08/01 02:00:55;;;;;;;4.03;1.40;;;;;;;23.31;58.39;98350.41;5000961;28;20366;-62
2022/08/01 02:03:21;;;;;;;4.30;1.30;;;;;;;23.27;58.54;98350.06;4985456;28;20551;-64
2022/08/01 02:05:47;;;;;;;4.05;1.50;;;;;;;23.27;58.77;98357.22;4996400;28;20029;-62
2022/08/01 02:08:15;;;;;;;4.10;1.33;;;;;;;23.22;58.10;98348.13;4990337;28;20507;-61
2022/08/01 02:10:41;;;;;;;4.20;1.40;;;;;;;23.22;57.99;98358.72;5000059;28;20026;-63
2022/08/01 02:13:06;;;;;;;3.38;1.20;;;;;;;23.32;57.84;98360.78;5001434;28;20092;-62
2022/08/01 02:15:33;;;;;;;3.90;1.35;;;;;;;23.28;57.52;98353.53;4973442;28;20022;-64
2022/08/01 02:18:01;;;;;;;3.15;1.42;;;;;;;23.37;57.33;98357.44;4999082;28;20435;-62
2022/08/01 02:20:29;;;;;;;4.72;1.60;;;;;;;23.14;57.01;98329.91;4982364;28;20023;-61
2022/08/01 02:23:07;;;;;;;3.70;1.23;;;;;;;23.33;56.87;98354.44;5001777;28;20036;-62
2022/08/01 02:25:38;;;;;;;3.17;1.35;;;;;;;23.38;56.87;98359.03;4978560;28;20026;-63
2022/08/01 02:28:10;;;;;;;3.80;1.55;;;;;;;23.40;56.40;98362.25;4984307;28;20452;-65
2022/08/01 02:30:38;;;;;;;3.10;1.30;;;;;;;23.34;56.54;98360.56;4984345;28;20099;-63
2022/08/01 02:33:25;;;;;;;3.35;1.40;;;;;;;23.30;55.91;98360.22;5012828;28;20030;-64
2022/08/01 02:35:52;;;;;;;3.47;1.40;;;;;;;23.16;56.05;98341.09;4991210;28;20045;-65
2022/08/01 02:38:20;;;;;;;3.60;1.33;;;;;;;23.32;56.11;98360.78;4990259;28;20121;-62
2022/08/01 02:40:47;;;;;;;3.67;1.27;;;;;;;23.02;56.47;98329.91;4979572;28;20030;-64
2022/08/01 02:43:15;;;;;;;5.93;1.50;;;;;;;23.23;56.73;98365.63;4981488;28;20044;-63
2022/08/01 02:45:43;;;;;;;3.50;1.30;;;;;;;23.26;57.09;98360.94;4979303;28;20034;-65
2022/08/01 02:48:11;;;;;;;3.42;1.40;;;;;;;23.28;57.04;98358.84;4983639;28;20034;-64
2022/08/01 02:50:38;;;;;;;4.00;1.50;;;;;;;23.00;56.70;98326.69;4982703;28;20557;-63
2022/08/01 02:53:06;;;;;;;3.63;1.38;;;;;;;22.90;57.13;98323.00;4980727;28;20026;-62
2022/08/01 02:55:32;;;;;;;3.60;1.20;;;;;;;23.19;56.92;98367.13;4997113;28;20026;-63
2022/08/01 02:57:59;;;;;;;4.22;1.30;;;;;;;23.12;57.56;98369.09;4997459;28;20037;-63
2022/08/01 03:00:24;;;;;;;3.25;1.20;;;;;;;23.10;57.65;98365.09;4996681;28;20084;-64
2022/08/01 03:02:51;;;;;;;3.53;1.40;;;;;;;23.05;58.28;98375.56;4996163;28;20491;-66
2022/08/01 03:05:17;;;;;;;3.80;1.35;;;;;;;23.10;57.66;98365.88;5005976;28;20029;-62
2022/08/01 03:07:43;;;;;;;3.28;1.27;;;;;;;22.93;57.29;98333.16;4998976;28;20801;-62
2022/08/01 03:10:09;;;;;;;3.85;1.40;;;;;;;23.26;55.92;98372.34;4982147;28;20041;-63
2022/08/01 03:12:36;;;;;;;3.88;1.50;;;;;;;23.25;56.83;98365.41;4983526;28;20232;-61
2022/08/01 03:15:03;;;;;;;3.53;1.48;;;;;;;23.16;57.71;98372.94;4977144;28;20125;-63
2022/08/01 03:17:30;;;;;;;3.65;1.60;;;;;;;23.10;57.43;98371.19;4986413;28;20057;-63
2022/08/01 03:19:57;;;;;;;3.75;1.20;;;;;;;22.89;57.73;98343.41;4980125;28;20030;-64
2022/08/01 03:22:24;;;;;;;4.75;1.30;;;;;;;23.03;57.07;98370.47;4997343;28;20835;-66
2022/08/01 03:24:52;;;;;;;3.60;1.50;;;;;;;23.03;57.15;98373.13;5000226;28;20029;-62
2022/08/01 03:27:19;;;;;;;4.07;1.40;;;;;;;23.00;57.08;98366.44;4993619;28;20034;-63
2022/08/01 03:29:46;;;;;;;3.65;1.40;;;;;;;22.78;57.06;98333.59;4997523;28;20103;-61
2022/08/01 03:32:12;;;;;;;4.45;1.45;;;;;;;23.02;57.29;98371.53;5000597;28;20136;-62
2022/08/01 03:34:38;;;;;;;2.90;1.33;;;;;;;23.02;57.49;98374.19;4999818;28;20060;-64
2022/08/01 03:37:10;;;;;;;3.40;1.40;;;;;;;22.81;57.74;98336.59;4972250;28;20027;-65
2022/08/01 03:40:29;;;;;;;4.30;1.20;;;;;;;22.94;57.97;98379.81;5000191;28;20161;-63
2022/08/01 03:42:59;;;;;;;4.40;1.30;;;;;;;22.84;57.96;98359.19;4989578;28;20510;-63
2022/08/01 03:45:27;;;;;;;3.70;1.45;;;;;;;22.93;57.93;98379.00;4980381;28;20089;-62
2022/08/01 03:47:56;;;;;;;3.20;1.30;;;;;;;22.92;58.00;98372.09;4986116;28;20233;-63
2022/08/01 03:50:24;;;;;;;3.88;1.40;;;;;;;22.91;58.14;98374.97;4983551;28;20034;-63
2022/08/01 03:52:51;;;;;;;4.97;1.27;;;;;;;22.88;58.50;98378.09;4997997;28;20545;-63
2022/08/01 03:55:16;;;;;;;3.35;1.25;;;;;;;22.83;58.46;98378.75;5000489;28;20037;-63
2022/08/01 03:57:43;;;;;;;5.88;1.52;;;;;;;22.71;58.33;98370.81;5001187;28;20017;-64
2022/08/01 04:00:09;;;;;;;3.80;1.58;;;;;;;22.82;58.25;98379.81;5000836;28;20562;-63
2022/08/01 04:02:34;;;;;;;3.85;1.52;;;;;;;22.59;58.06;98344.28;4996843;28;20025;-65
2022/08/01 04:05:00;;;;;;;4.03;1.75;;;;;;;22.84;58.06;98380.41;4985999;28;20030;-63
2022/08/01 04:07:35;;;;;;;3.85;1.50;;;;;;;22.55;58.27;98345.00;4998303;28;20018;-63
2022/08/01 04:10:01;;;;;;;3.60;1.30;;;;;;;22.76;58.58;98380.72;4995962;28;20053;-63
2022/08/01 04:12:26;;;;;;;3.30;1.40;;;;;;;22.70;58.22;98379.78;4991933;28;20400;-62
2022/08/01 04:14:52;;;;;;;4.18;1.40;;;;;;;22.62;58.18;98345.69;5000499;28;20140;-61
2022/08/01 04:17:18;;;;;;;3.92;1.30;;;;;;;22.77;58.28;98387.66;4989574;28;20026;-65
2022/08/01 04:19:45;;;;;;;3.47;1.38;;;;;;;22.53;57.82;98337.28;4991519;28;20303;-63
2022/08/01 04:22:13;;;;;;;4.00;1.50;;;;;;;22.76;58.11;98375.41;4998913;28;20076;-63
2022/08/01 04:24:39;;;;;;;3.55;1.45;;;;;;;22.79;57.86;98391.66;5001601;28;20034;-64
2022/08/01 04:27:09;;;;;;;3.42;1.40;;;;;;;22.74;58.13;98388.88;4984193;28;20397;-61
2022/08/01 04:29:36;;;;;;;3.33;1.42;;;;;;;22.72;57.75;98395.47;4982673;28;20038;-62
2022/08/01 04:32:02;;;;;;;3.47;1.40;;;;;;;22.71;57.43;98380.59;5001314;28;20037;-62
2022/08/01 04:34:28;;;;;;;4.82;1.48;;;;;;;22.75;57.58;98395.03;4983021;28;20053;-62
2022/08/01 04:36:55;;;;;;;3.83;1.38;;;;;;;22.76;57.15;98400.09;4980066;28;20038;-66
2022/08/01 04:39:23;;;;;;;3.40;1.23;;;;;;;22.71;57.57;98402.63;4979293;28;20513;-64
2022/08/01 04:41:50;;;;;;;4.15;1.50;;;;;;;22.75;57.61;98392.38;5000208;28;20548;-64
2022/08/01 04:44:16;;;;;;;5.78;1.88;;;;;;;22.73;57.79;98395.25;4983939;28;20138;-63
2022/08/01 04:46:42;;;;;;;3.45;1.30;;;;;;;22.72;57.81;98390.97;4994131;28;20422;-63
2022/08/01 04:49:08;;;;;;;3.78;1.30;;;;;;;22.50;57.32;98360.75;4997848;28;20113;-62
2022/08/01 04:51:34;;;;;;;3.10;1.20;;;;;;;22.68;57.90;98397.75;5000635;28;20022;-62
2022/08/01 04:54:00;;;;;;;3.80;1.45;;;;;;;22.82;57.02;98403.66;5003804;28;20041;-63
2022/08/01 04:56:26;;;;;;;3.28;1.40;;;;;;;22.72;57.36;98403.41;5001560;28;20054;-63
2022/08/01 04:59:39;;;;;;;3.47;1.30;;;;;;;22.74;57.09;98401.34;4982988;28;20242;-63
2022/08/01 05:01:37;;;;;;;4.22;1.33;;;;;;;22.79;57.43;98402.28;4998332;28;20144;-64
2022/08/01 05:04:02;;;;;;;3.65;1.40;;;;;;;22.74;57.18;98404.78;5000545;28;20116;-64
2022/08/01 05:06:27;;;;;;;3.17;1.30;;;;;;;22.49;56.89;98361.78;4981588;28;20377;-65
2022/08/01 05:08:53;;;;;;;3.47;1.20;;;;;;;22.56;56.71;98373.09;4990547;28;20132;-64
2022/08/01 05:11:18;;;;;;;2.78;1.15;;;;;;;22.83;56.45;98397.31;5000225;28;20038;-64
2022/08/01 05:13:43;;;;;;;4.38;1.40;;;;;;;22.86;56.38;98398.72;5004210;28;20029;-65
2022/08/01 05:16:09;;;;;;;3.63;1.30;;;;;;;22.84;56.85;98410.34;5002259;28;20101;-62
2022/08/01 05:18:34;;;;;;;4.57;1.30;;;;;;;22.86;56.83;98407.47;4991771;28;20030;-63
2022/08/01 05:21:01;;;;;;;4.07;1.30;;;;;;;22.82;57.40;98401.81;4996693;28;20116;-63
2022/08/01 05:23:27;;;;;;;3.67;1.50;;;;;;;22.63;57.70;98371.13;5000000;28;20037;-62
2022/08/01 05:25:52;;;;;;;3.88;1.52;;;;;;;22.91;57.18;98412.06;5002667;28;20038;-64
2022/08/01 05:28:18;;;;;;;4.88;1.58;;;;;;;22.70;57.31;98406.28;4984419;28;20040;-65
2022/08/01 05:30:43;;;;;;;3.35;1.35;;;;;;;22.70;57.55;98411.59;4988916;28;20036;-62
2022/08/01 05:33:08;;;;;;;3.80;1.30;;;;;;;22.67;58.07;98405.94;5001886;28;20033;-63
2022/08/01 05:35:34;;;;;;;3.00;1.20;;;;;;;22.72;58.51;98408.72;5005774;28;20507;-65
2022/08/01 05:37:59;;;;;;;3.30;1.40;;;;;;;22.66;58.56;98399.84;5000443;28;20032;-63
2022/08/01 05:40:25;;;;;;;3.42;1.20;;;;;;;22.68;58.24;98418.97;4997283;28;20441;-62
2022/08/01 05:42:50;;;;;;;3.25;1.30;;;;;;;22.61;57.66;98408.47;5007044;28;20357;-64
2022/08/01 05:45:16;;;;;;;3.50;1.33;;;;;;;22.62;57.57;98414.59;5001873;28;20030;-60
2022/08/01 05:47:41;;;;;;;3.35;1.30;;;;;;;22.56;57.45;98412.81;5001318;28;20397;-65
2022/08/01 05:50:07;;;;;;;4.35;1.40;;;;;;;22.54;56.81;98401.66;5000416;28;20042;-64
2022/08/01 05:52:32;;;;;;;3.33;1.20;;;;;;;22.58;56.57;98400.16;4997136;28;20096;-64
2022/08/01 05:54:58;;;;;;;4.03;1.48;;;;;;;22.64;56.41;98408.00;4997087;28;20148;-63
2022/08/01 05:57:23;;;;;;;5.07;1.50;;;;;;;22.69;56.63;98409.16;4998033;28;20034;-62
2022/08/01 05:59:48;;;;;;;4.10;1.50;;;;;;;22.67;56.79;98414.72;5003398;28;20026;-62
2022/08/01 06:02:14;;;;;;;3.83;1.65;;;;;;;22.66;56.43;98418.38;4998402;28;20631;-62
2022/08/01 06:04:39;;;;;;;2.95;1.25;;;;;;;22.60;56.67;98409.50;4999969;28;20112;-62
2022/08/01 06:07:04;;;;;;;3.70;1.30;;;;;;;22.72;56.18;98406.06;5002491;28;20034;-61
2022/08/01 06:09:30;;;;;;;3.65;1.27;;;;;;;22.75;57.91;98401.13;4985422;28;20449;-60
2022/08/01 06:11:56;;;;;;;3.50;1.50;;;;;;;22.83;58.75;98410.56;5003742;28;20034;-63
2022/08/01 06:14:21;;;;;;;3.25;1.23;;;;;;;22.87;59.46;98416.22;4999394;28;20029;-63
2022/08/01 06:16:46;;;;;;;3.40;1.38;;;;;;;22.76;58.31;98386.00;4993666;28;20099;-62
2022/08/01 06:19:12;;;;;;;4.10;1.50;;;;;;;23.01;57.59;98417.63;5002527;28;20030;-63
2022/08/01 06:21:37;;;;;;;3.83;1.42;;;;;;;23.02;54.50;98417.41;4996713;28;21448;-63
2022/08/01 06:24:03;;;;;;;4.85;1.40;;;;;;;22.99;54.01;98422.34;4979435;28;20073;-61
2022/08/01 06:26:29;;;;;;;4.32;1.20;;;;;;;23.00;54.63;98423.97;5000278;28;20052;-62
2022/08/01 06:28:54;;;;;;;4.03;1.38;;;;;;;22.87;53.42;98419.66;5000488;28;20087;-64
2022/08/01 06:31:19;;;;;;;3.38;1.38;;;;;;;23.01;54.69;98421.06;4998160;28;20408;-61
2022/08/01 06:33:45;;;;;;;3.75;1.30;;;;;;;23.03;53.78;98419.00;4981912;28;20030;-62
2022/08/01 06:36:10;;;;;;;3.13;1.10;;;;;;;22.92;53.13;98419.00;4999042;28;20465;-64
2022/08/01 06:38:36;;;;;;;4.05;1.25;;;;;;;23.04;56.34;98425.16;5000523;28;20433;-64
2022/08/01 06:41:02;;;;;;;4.28;1.30;;;;;;;23.10;52.60;98415.47;5002101;28;20769;-65
2022/08/01 06:43:27;;;;;;;3.65;1.40;;;;;;;23.09;54.75;98408.53;5001262;28;20028;-64
2022/08/01 06:45:52;;;;;;;3.25;1.25;;;;;;;22.91;53.21;98385.56;4995920;28;20034;-62
2022/08/01 06:48:18;;;;;;;4.07;1.30;;;;;;;22.93;52.91;98373.72;4983404;28;20489;-60
2022/08/01 06:50:43;;;;;;;2.58;1.20;;;;;;;23.05;53.61;98400.25;4987969;28;20025;-65
2022/08/01 06:53:09;;;;;;;3.45;1.20;;;;;;;23.16;51.89;98412.72;4979491;28;20022;-64
2022/08/01 06:55:34;;;;;;;3.30;1.23;;;;;;;22.91;50.90;98377.59;5003174;28;20059;-62
2022/08/01 06:57:59;;;;;;;3.95;1.30;;;;;;;23.01;50.89;98407.81;5002626;28;20026;-60
2022/08/01 07:00:25;;;;;;;3.40;1.33;;;;;;;22.98;50.81;98410.94;4998122;28;20481;-65
2022/08/01 07:02:52;;;;;;;4.00;1.50;;;;;;;23.11;50.24;98414.41;4977305;28;20025;-64
2022/08/01 07:05:19;;;;;;;5.95;1.85;;;;;;;23.12;49.42;98408.88;4983025;28;20675;-64
2022/08/01 07:07:44;;;;;;;4.22;1.60;;;;;;;23.08;49.83;98420.19;4982782;28;20029;-62
2022/08/01 07:10:10;;;;;;;3.30;1.30;;;;;;;23.17;49.49;98416.16;4997431;28;20034;-62
2022/08/01 07:12:40;;;;;;;3.17;1.20;;;;;;;23.11;51.27;98404.63;5002311;28;20037;-64
2022/08/01 07:15:07;;;;;;;4.35;1.35;;;;;;;23.21;50.06;98412.81;4992179;28;20042;-61
2022/08/01 07:17:36;;;;;;;4.18;1.30;;;;;;;23.18;51.20;98415.09;4987688;28;20022;-61
2022/08/01 07:20:02;;;;;;;3.05;1.20;;;;;;;23.25;52.02;98405.19;4983620;28;20041;-62
2022/08/01 07:22:27;;;;;;;4.07;1.38;;;;;;;23.27;52.13;98415.56;4987400;28;20029;-64
2022/08/01 07:24:53;;;;;;;4.28;1.60;;;;;;;23.10;53.34;98384.44;4999704;28;20076;-61
2022/08/01 07:27:18;;;;;;;3.08;1.30;;;;;;;23.34;53.26;98416.25;4998683;28;20032;-63
2022/08/01 07:29:43;;;;;;;5.18;1.48;;;;;;;23.41;53.27;98407.13;4999273;28;20092;-61
2022/08/01 07:32:09;;;;;;;3.95;1.35;;;;;;;23.46;53.24;98419.72;5001562;28;20032;-61
2022/08/01 07:34:34;;;;;;;3.50;1.33;;;;;;;23.49;52.76;98408.66;4998003;28;20101;-63
2022/08/01 07:37:00;;;;;;;4.82;1.70;;;;;;;23.34;52.73;98400.34;5001152;28;20369;-62
2022/08/01 07:39:25;;;;;;;3.50;1.30;;;;;;;23.41;53.97;98409.78;5001515;28;20025;-64
2022/08/01 07:41:50;;;;;;;5.00;1.50;;;;;;;23.37;54.71;98411.28;5005474;28;20087;-62
2022/08/01 07:44:16;;;;;;;3.65;1.40;;;;;;;23.40;54.02;98412.66;4984391;28;20033;-62
2022/08/01 07:46:41;;;;;;;4.97;1.52;;;;;;;23.25;53.24;98381.31;5003671;28;20037;-62
2022/08/01 07:49:07;;;;;;;3.90;1.30;;;;;;;23.41;53.58;98408.97;4999806;28;20698;-61
2022/08/01 07:51:33;;;;;;;3.53;1.33;;;;;;;23.40;53.49;98404.69;4983617;28;20033;-62
2022/08/01 07:53:58;;;;;;;4.28;1.58;;;;;;;23.37;53.55;98395.38;4997162;28;20018;-62
2022/08/01 07:56:25;;;;;;;3.33;1.27;;;;;;;23.44;53.43;98405.03;4988765;28;20521;-63
2022/08/01 07:58:50;;;;;;;4.15;1.40;;;;;;;23.45;54.37;98401.38;4984243;28;20037;-63
2022/08/01 08:01:16;;;;;;;3.70;1.42;;;;;;;23.29;54.25;98382.50;4995692;28;20516;-62
2022/08/01 08:03:41;;;;;;;3.45;1.33;;;;;;;23.49;51.32;98398.03;4991000;28;20385;-64
2022/08/01 08:06:08;;;;;;;5.07;1.33;;;;;;;23.95;48.59;98395.50;4995545;28;20559;-62
2022/08/01 08:08:34;;;;;;;4.43;1.67;;;;;;;24.78;45.63;98398.53;4977759;28;20029;-64
2022/08/01 08:11:00;;;;;;;5.60;1.65;;;;;;;25.33;43.87;98392.44;4998230;28;20034;-61
2022/08/01 08:13:25;;;;;;;5.78;1.80;;;;;;;25.83;42.47;98392.50;4980202;28;20036;-64
2022/08/01 08:15:51;;;;;;;4.72;1.92;;;;;;;26.21;41.35;98394.28;4983510;28;20018;-60
2022/08/01 08:18:16;;;;;;;4.40;2.20;;;;;;;26.58;40.93;98387.41;4998773;28;20033;-61
2022/08/01 08:20:42;;;;;;;4.03;1.77;;;;;;;27.04;39.70;98393.09;4989163;28;20038;-63
2022/08/01 08:24:19;;;;;;;5.45;1.48;;;;;;;27.52;37.93;98390.44;4979162;28;20037;-62
2022/08/01 08:25:52;;;;;;;3.78;1.38;;;;;;;27.77;37.41;98384.38;5000445;28;20092;-63
2022/08/01 08:28:18;;;;;;;3.17;1.40;;;;;;;28.15;36.59;98385.84;4982039;28;20143;-63
2022/08/01 08:30:43;;;;;;;3.95;1.40;;;;;;;28.48;35.97;98397.09;4992665;28;20502;-62
2022/08/01 08:33:08;;;;;;;3.90;1.42;;;;;;;28.30;35.45;98363.66;4992762;28;20129;-62
2022/08/01 08:35:34;;;;;;;3.40;1.20;;;;;;;28.78;34.96;98389.34;4999124;28;20084;-65
2022/08/01 08:37:59;;;;;;;3.13;1.02;;;;;;;28.97;34.28;98390.41;4998780;28;20835;-62
2022/08/01 08:40:29;;;;;;;3.10;1.30;;;;;;;29.15;35.16;98402.41;5003615;28;20038;-61
2022/08/01 08:42:55;;;;;;;3.90;1.45;;;;;;;29.00;35.35;98384.50;4985099;28;20049;-62
2022/08/01 08:45:20;;;;;;;3.20;1.25;;;;;;;29.11;35.93;98387.94;4997236;28;20120;-64
2022/08/01 08:47:46;;;;;;;3.40;1.40;;;;;;;29.13;35.59;98354.50;5003806;28;20029;-65
2022/08/01 08:50:12;;;;;;;3.70;1.30;;;;;;;29.60;33.96;98368.53;5002286;28;20041;-61
2022/08/01 08:52:38;;;;;;;4.63;1.35;;;;;;;30.47;33.71;98378.75;5001417;28;20660;-61
2022/08/01 08:55:05;;;;;;;5.13;1.20;;;;;;;30.25;32.92;98384.53;4999360;28;20154;-63
2022/08/01 08:57:30;;;;;;;3.38;1.30;;;;;;;30.13;32.09;98359.94;4984036;28;20030;-62
2022/08/01 08:59:56;;;;;;;3.75;1.50;;;;;;;30.18;32.73;98383.25;4995631;28;20664;-60
2022/08/01 09:02:22;;;;;;;5.47;1.80;;;;;;;30.47;32.08;98378.75;4996524;28;20094;-59
2022/08/01 09:04:49;;;;;;;4.57;1.50;;;;;;;30.75;32.05;98378.25;5003410;28;20059;-63
2022/08/01 09:07:14;;;;;;;2.85;1.10;;;;;;;31.42;29.10;98378.38;4978928;28;20032;-61
2022/08/01 09:09:40;;;;;;;3.83;1.70;;;;;;;31.43;30.08;98342.34;5003847;28;20041;-59
2022/08/01 09:12:05;;;;;;;2.75;1.10;;;;;;;31.48;27.83;98379.94;5000861;28;20072;-64
2022/08/01 09:14:31;;;;;;;3.08;1.10;;;;;;;30.59;30.43;98372.22;4985842;28;20409;-61
2022/08/01 09:17:06;;;;;;;2.90;1.10;;;;;;;30.83;29.60;98356.16;5002430;28;20371;-60
2022/08/01 09:19:39;;;;;;;5.15;1.30;;;;;;;31.08;29.66;98376.59;4986048;28;20029;-59
2022/08/01 09:22:10;;;;;;;3.90;1.30;;;;;;;30.77;31.29;98381.47;5003532;28;20121;-59
2022/08/01 09:24:36;;;;;;;5.10;1.50;;;;;;;30.98;31.84;98358.72;5004098;28;20116;-60
2022/08/01 09:27:19;;;;;;;3.90;1.92;;;;;;;30.83;33.31;98367.72;4992344;28;20227;-61
2022/08/01 09:29:44;;;;;;;2.97;1.10;;;;;;;30.45;33.14;98366.72;5003979;28;20092;-58
2022/08/01 09:32:10;;;;;;;3.13;1.10;;;;;;;30.56;33.56;98356.72;4999737;28;20083;-59
2022/08/01 09:34:35;;;;;;;4.15;1.33;;;;;;;30.53;35.97;98368.00;4992489;28;20026;-58
2022/08/01 09:37:02;;;;;;;3.22;1.35;;;;;;;30.37;36.55;98361.94;4998650;28;20427;-61
2022/08/01 09:39:33;;;;;;;4.57;1.30;;;;;;;30.03;35.67;98368.88;4988745;28;20053;-60
2022/08/01 09:42:00;;;;;;;4.50;1.20;;;;;;;29.41;36.70;98356.84;4995207;28;20033;-61
2022/08/01 09:44:41;;;;;;;3.22;1.38;;;;;;;29.11;37.72;98367.34;4986441;28;20377;-59
2022/08/01 09:47:07;;;;;;;2.97;1.10;;;;;;;28.74;37.77;98348.97;4998283;28;20025;-57
2022/08/01 09:49:35;;;;;;;3.97;1.27;;;;;;;28.50;37.01;98348.69;5000405;28;20030;-59
2022/08/01 09:52:21;;;;;;;3.55;1.35;;;;;;;28.42;38.42;98347.38;4985557;28;20547;-60
2022/08/01 09:54:55;;;;;;;3.40;1.40;;;;;;;28.30;40.27;98357.53;4978413;28;20041;-58
2022/08/01 09:57:20;;;;;;;3.38;1.38;;;;;;;28.27;41.16;98340.13;4985232;28;20022;-60
2022/08/01 09:59:48;;;;;;;3.58;1.20;;;;;;;28.31;39.02;98346.56;5004088;28;20384;-58
2022/08/01 10:02:27;;;;;;;4.95;1.25;;;;;;;28.47;40.92;98335.84;4997779;28;20424;-61
2022/08/01 10:04:54;;;;;;;3.80;1.33;;;;;;;28.68;38.46;98331.34;4993196;28;20040;-59
2022/08/01 10:07:20;;;;;;;4.28;1.20;;;;;;;28.92;34.51;98329.66;4984620;28;20029;-58
2022/08/01 10:09:46;;;;;;;4.03;1.30;;;;;;;28.78;34.93;98336.66;5005402;28;20029;-60
2022/08/01 10:12:14;;;;;;;4.82;1.30;;;;;;;28.89;33.11;98332.88;5005997;28;20014;-57
2022/08/01 10:14:40;;;;;;;4.63;1.30;;;;;;;29.00;32.46;98328.28;4999925;28;20075;-59
2022/08/01 10:17:09;;;;;;;3.13;1.10;;;;;;;29.25;33.02;98323.97;4997477;28;20112;-60
2022/08/01 10:19:37;;;;;;;2.95;1.20;;;;;;;29.14;34.15;98317.84;4983975;28;20025;-58
2022/08/01 10:22:05;;;;;;;3.27;1.40;;;;;;;29.02;40.60;98318.13;5000174;28;20022;-59
2022/08/01 10:24:30;;;;;;;4.35;2.17;;;;;;;29.13;41.87;98311.69;4985075;28;20269;-60
2022/08/01 10:27:03;;;;;;;4.00;1.30;;;;;;;29.35;35.79;98309.72;4999397;28;20037;-61
2022/08/01 10:29:37;;;;;;;3.22;1.30;;;;;;;29.44;37.58;98316.91;4998845;28;20065;-61
2022/08/01 10:32:05;;;;;;;3.42;1.40;;;;;;;29.75;35.02;98305.25;4984223;28;20034;-59
2022/08/01 10:34:31;;;;;;;4.72;2.10;;;;;;;29.65;33.46;98271.28;4983943;28;20859;-60
2022/08/01 10:36:57;;;;;;;3.13;1.20;;;;;;;29.70;34.08;98293.47;5001995;28;20482;-59
2022/08/01 10:39:23;;;;;;;4.18;1.30;;;;;;;29.58;33.99;98278.81;4999344;28;20080;-62
2022/08/01 10:41:48;;;;;;;4.30;1.30;;;;;;;29.38;35.07;98261.00;4997691;28;20052;-62
2022/08/01 10:44:14;;;;;;;3.60;1.40;;;;;;;29.79;34.08;98287.56;4997755;28;20409;-61
2022/08/01 10:46:45;;;;;;;3.95;1.85;;;;;;;29.87;31.69;98276.25;4993413;28;20029;-58
2022/08/01 10:49:13;;;;;;;4.13;1.38;;;;;;;29.96;32.52;98274.56;4979344;28;20095;-60
2022/08/01 10:51:39;;;;;;;2.92;1.00;;;;;;;30.14;32.51;98280.31;4981603;28;20030;-61
2022/08/01 10:54:06;;;;;;;4.47;1.98;;;;;;;30.18;33.13;98271.44;5000917;28;20034;-59
2022/08/01 10:56:40;;;;;;;3.88;1.27;;;;;;;30.14;32.09;98245.47;4982918;28;20149;-57
2022/08/01 10:59:06;;;;;;;3.45;1.30;;;;;;;30.53;30.82;98268.75;4989237;28;20041;-59
2022/08/01 11:01:34;;;;;;;3.10;1.20;;;;;;;30.67;32.27;98256.25;5000533;28;20038;-62
2022/08/01 11:04:00;;;;;;;3.80;1.30;;;;;;;30.46;31.03;98232.31;4999705;28;20026;-59
2022/08/01 11:06:42;;;;;;;4.10;1.30;;;;;;;30.52;33.62;98257.22;5002051;28;20060;-62
2022/08/01 11:09:11;;;;;;;3.10;1.20;;;;;;;30.46;32.21;98259.13;4979589;28;20269;-60
2022/08/01 11:11:57;;;;;;;3.47;1.20;;;;;;;30.41;30.71;98245.78;5003502;28;20400;-60
2022/08/01 11:14:22;;;;;;;3.60;1.40;;;;;;;30.45;29.14;98252.19;4994828;28;20022;-59
2022/08/01 11:16:48;;;;;;;5.40;1.30;;;;;;;30.69;30.21;98242.56;4991414;28;20044;-60
2022/08/01 11:19:13;;;;;;;2.70;1.17;;;;;;;30.82;29.54;98231.91;4993006;28;20038;-58
2022/08/01 11:21:54;;;;;;;3.55;1.15;;;;;;;30.88;30.96;98245.28;5001672;28;20392;-59
2022/08/01 11:24:48;;;;;;;3.30;1.15;;;;;;;30.71;29.92;98232.34;4995254;28;20122;-61
2022/08/01 11:27:22;;;;;;;4.35;1.30;;;;;;;30.84;29.25;98229.75;5002103;28;20018;-61
2022/08/01 11:30:08;;;;;;;3.90;1.30;;;;;;;30.74;28.97;98229.06;5001944;28;20344;-61
2022/08/01 11:33:05;;;;;;;3.05;1.20;;;;;;;30.57;31.41;98189.28;4985888;28;20050;-60
2022/08/01 11:35:31;;;;;;;4.00;1.27;;;;;;;30.91;31.82;98216.03;4986981;28;20080;-60
2022/08/01 11:37:56;;;;;;;3.40;1.30;;;;;;;30.81;32.16;98216.91;4996737;28;20034;-62